createdAt,value
2023-04-02T00:00:21.221Z,3.78
2023-04-02T00:01:12.026Z,3.75
2023-04-02T00:02:02.810Z,3.75
2023-04-02T00:02:53.659Z,3.76
2023-04-02T00:03:44.762Z,3.72
2023-04-02T00:04:35.529Z,3.75
2023-04-02T00:05:26.330Z,3.75
2023-04-02T00:06:17.113Z,3.76
2023-04-02T00:07:07.912Z,3.75
2023-04-02T00:07:58.691Z,3.72
2023-04-02T00:08:49.474Z,3.76
2023-04-02T00:09:40.263Z,3.76
2023-04-02T00:10:31.066Z,3.76
2023-04-02T00:11:21.851Z,3.78
2023-04-02T00:12:12.653Z,3.78
2023-04-02T00:13:03.437Z,3.76
2023-04-02T00:13:54.236Z,3.78
2023-04-02T00:14:45.023Z,3.78
2023-04-02T00:15:36.097Z,3.79
2023-04-02T00:16:27.149Z,3.76
2023-04-02T00:17:17.888Z,3.75
2023-04-02T00:18:08.700Z,3.78
2023-04-02T00:18:59.465Z,3.76
2023-04-02T00:19:50.259Z,3.78
2023-04-02T00:20:41.050Z,3.76
2023-04-02T00:21:31.833Z,3.79
2023-04-02T00:22:22.633Z,3.78
2023-04-02T00:23:13.421Z,3.79
2023-04-02T00:24:04.208Z,3.79
2023-04-02T00:24:55.001Z,3.80
2023-04-02T00:25:45.871Z,3.79
2023-04-02T00:26:36.611Z,3.78
2023-04-02T00:27:27.390Z,3.78
2023-04-02T00:28:18.173Z,3.78
2023-04-02T00:29:08.965Z,3.78
2023-04-02T00:29:59.768Z,3.78
2023-04-02T00:30:50.552Z,3.79
2023-04-02T00:31:41.367Z,3.78
2023-04-02T00:32:32.173Z,3.79
2023-04-02T00:33:22.928Z,3.79
2023-04-02T00:34:13.706Z,3.79
2023-04-02T00:35:04.512Z,3.79
2023-04-02T00:35:55.363Z,3.79
2023-04-02T00:36:46.089Z,3.80
2023-04-02T00:37:36.881Z,3.79
2023-04-02T00:38:27.673Z,3.79
2023-04-02T00:39:18.458Z,3.78
2023-04-02T00:40:09.255Z,3.78
2023-04-02T00:41:00.043Z,3.79
2023-04-02T00:41:50.834Z,3.79
2023-04-02T00:42:41.619Z,3.80
2023-04-02T00:43:32.404Z,3.80
2023-04-02T00:44:23.198Z,3.80
2023-04-02T00:45:13.986Z,3.82
2023-04-02T00:46:04.850Z,3.79
2023-04-02T00:46:55.614Z,3.79
2023-04-02T00:47:46.431Z,3.78
2023-04-02T00:48:37.175Z,3.78
2023-04-02T00:49:27.966Z,3.78
2023-04-02T00:50:18.771Z,3.79
2023-04-02T00:51:09.578Z,3.79
2023-04-02T00:52:00.340Z,3.79
2023-04-02T00:52:51.136Z,3.76
2023-04-02T00:53:41.922Z,3.79
2023-04-02T00:54:32.704Z,3.76
2023-04-02T00:55:23.494Z,3.76
2023-04-02T00:56:14.279Z,3.76
2023-04-02T00:57:05.112Z,3.72
2023-04-02T00:57:55.862Z,3.72
2023-04-02T00:58:46.667Z,3.70
2023-04-02T00:59:37.463Z,3.70
2023-04-02T01:00:28.261Z,3.71
2023-04-02T01:01:19.091Z,3.70
2023-04-02T01:02:09.975Z,3.71
2023-04-02T01:03:00.812Z,3.72
2023-04-02T01:03:51.773Z,3.70
2023-04-02T01:04:42.808Z,3.72
2023-04-02T01:05:33.873Z,3.71
2023-04-02T01:06:24.958Z,3.71
2023-04-02T01:07:15.679Z,3.71
2023-04-02T01:08:06.473Z,3.72
2023-04-02T01:08:57.270Z,3.71
2023-04-02T01:09:48.053Z,3.72
2023-04-02T01:10:38.839Z,3.70
2023-04-02T01:11:29.640Z,3.70
2023-04-02T01:12:20.417Z,3.68
2023-04-02T01:13:11.215Z,3.71
2023-04-02T01:14:02.003Z,3.70
2023-04-02T01:14:52.795Z,3.70
2023-04-02T01:15:43.630Z,3.70
2023-04-02T01:16:34.396Z,3.71
2023-04-02T01:17:25.306Z,3.70
2023-04-02T01:18:16.049Z,3.68
2023-04-02T01:19:06.830Z,3.68
2023-04-02T01:19:57.614Z,3.68
2023-04-02T01:20:48.410Z,3.68
2023-04-02T01:21:39.194Z,3.68
2023-04-02T01:22:29.970Z,3.67
2023-04-02T01:23:20.767Z,3.67
2023-04-02T01:24:11.550Z,3.70
2023-04-02T01:25:02.343Z,3.70
2023-04-02T01:25:53.144Z,3.68
2023-04-02T01:26:43.947Z,3.68
2023-04-02T01:27:34.724Z,3.70
2023-04-02T01:28:25.525Z,3.68
2023-04-02T01:29:16.293Z,3.68
2023-04-02T01:30:07.094Z,3.68
2023-04-02T01:30:57.897Z,3.71
2023-04-02T01:31:48.785Z,3.70
2023-04-02T01:32:39.707Z,3.68
2023-04-02T01:33:30.440Z,3.68
2023-04-02T01:34:21.224Z,3.68
2023-04-02T01:35:12.024Z,3.68
2023-04-02T01:36:02.823Z,3.67
2023-04-02T01:36:53.605Z,3.67
2023-04-02T01:37:44.378Z,3.67
2023-04-02T01:38:35.155Z,3.67
2023-04-02T01:39:25.940Z,3.68
2023-04-02T01:40:16.747Z,3.68
2023-04-02T01:41:07.542Z,3.68
2023-04-02T01:41:58.347Z,3.70
2023-04-02T01:42:49.143Z,3.68
2023-04-02T01:43:39.920Z,3.68
2023-04-02T01:44:30.708Z,3.70
2023-04-02T01:45:21.508Z,3.68
2023-04-02T01:46:12.316Z,3.70
2023-04-02T01:47:03.087Z,3.70
2023-04-02T01:47:53.932Z,3.71
2023-04-02T01:48:44.667Z,3.72
2023-04-02T01:49:35.451Z,3.70
2023-04-02T01:50:26.249Z,3.71
2023-04-02T01:51:17.266Z,3.75
2023-04-02T01:52:08.077Z,3.75
2023-04-02T01:52:58.854Z,3.72
2023-04-02T01:53:49.641Z,3.72
2023-04-02T01:54:40.446Z,3.71
2023-04-02T01:55:31.295Z,3.71
2023-04-02T01:56:22.060Z,3.70
2023-04-02T01:57:12.886Z,3.70
2023-04-02T01:58:03.636Z,3.68
2023-04-02T01:58:54.435Z,3.70
2023-04-02T01:59:45.218Z,3.68
2023-04-02T02:00:36.050Z,3.68
2023-04-02T02:01:26.842Z,3.67
2023-04-02T02:02:17.632Z,3.67
2023-04-02T02:03:08.595Z,3.67
2023-04-02T02:03:59.425Z,3.67
2023-04-02T02:04:50.220Z,3.64
2023-04-02T02:05:41.007Z,3.64
2023-04-02T02:06:31.801Z,3.64
2023-04-02T02:07:22.569Z,3.64
2023-04-02T02:08:13.360Z,3.62
2023-04-02T02:09:04.164Z,3.62
2023-04-02T02:09:54.944Z,3.62
2023-04-02T02:10:46.885Z,3.64
2023-04-02T02:11:36.965Z,3.64
2023-04-02T02:12:27.746Z,3.62
2023-04-02T02:13:18.532Z,3.61
2023-04-02T02:14:09.321Z,3.60
2023-04-02T02:15:00.138Z,3.58
2023-04-02T02:15:50.907Z,3.60
2023-04-02T02:16:41.897Z,3.60
2023-04-02T02:17:32.876Z,3.60
2023-04-02T02:18:23.633Z,3.60
2023-04-02T02:19:14.393Z,3.58
2023-04-02T02:20:05.182Z,3.57
2023-04-02T02:20:55.980Z,3.60
2023-04-02T02:21:46.768Z,3.58
2023-04-02T02:22:37.553Z,3.58
2023-04-02T02:23:28.339Z,3.60
2023-04-02T02:24:19.132Z,3.58
2023-04-02T02:25:09.912Z,3.57
2023-04-02T02:26:00.709Z,3.57
2023-04-02T02:26:51.482Z,3.58
2023-04-02T02:27:42.277Z,3.54
2023-04-02T02:28:33.066Z,3.60
2023-04-02T02:29:23.847Z,3.58
2023-04-02T02:30:14.630Z,3.60
2023-04-02T02:31:05.427Z,3.61
2023-04-02T02:31:56.304Z,3.60
2023-04-02T02:32:47.105Z,3.61
2023-04-02T02:33:37.910Z,3.62
2023-04-02T02:34:28.710Z,3.62
2023-04-02T02:35:19.505Z,3.62
2023-04-02T02:36:10.325Z,3.65
2023-04-02T02:37:01.085Z,3.62
2023-04-02T02:37:51.857Z,3.64
2023-04-02T02:38:42.639Z,3.62
2023-04-02T02:39:33.452Z,3.65
2023-04-02T02:40:24.216Z,3.65
2023-04-02T02:41:15.016Z,3.65
2023-04-02T02:42:05.793Z,3.65
2023-04-02T02:42:56.603Z,3.65
2023-04-02T02:43:47.377Z,3.65
2023-04-02T02:44:38.176Z,3.65
2023-04-02T02:45:28.959Z,3.65
2023-04-02T02:46:19.822Z,3.67
2023-04-02T02:47:10.611Z,3.65
2023-04-02T02:48:01.463Z,3.65
2023-04-02T02:48:52.273Z,3.67
2023-04-02T02:49:43.024Z,3.67
2023-04-02T02:50:33.835Z,3.65
2023-04-02T02:51:24.613Z,3.67
2023-04-02T02:52:15.394Z,3.67
2023-04-02T02:53:06.409Z,3.67
2023-04-02T02:53:57.127Z,3.68
2023-04-02T02:54:47.951Z,3.65
2023-04-02T02:55:38.741Z,3.67
2023-04-02T02:56:29.529Z,3.67
2023-04-02T02:57:20.343Z,3.67
2023-04-02T02:58:11.107Z,3.65
2023-04-02T02:59:01.903Z,3.67
2023-04-02T02:59:52.695Z,3.67
2023-04-02T03:00:43.466Z,3.70
2023-04-02T03:01:34.281Z,3.68
2023-04-02T03:02:25.139Z,3.68
2023-04-02T03:03:16.009Z,3.65
2023-04-02T03:04:06.986Z,3.67
2023-04-02T03:04:57.769Z,3.68
2023-04-02T03:05:48.559Z,3.65
2023-04-02T03:06:39.352Z,3.62
2023-04-02T03:07:30.135Z,3.65
2023-04-02T03:08:20.934Z,3.65
2023-04-02T03:09:11.717Z,3.67
2023-04-02T03:10:02.553Z,3.65
2023-04-02T03:10:53.303Z,3.68
2023-04-02T03:11:44.103Z,3.67
2023-04-02T03:12:34.900Z,3.67
2023-04-02T03:13:25.688Z,3.71
2023-04-02T03:14:16.462Z,3.70
2023-04-02T03:15:07.285Z,3.70
2023-04-02T03:15:58.060Z,3.68
2023-04-02T03:16:48.841Z,3.68
2023-04-02T03:17:39.701Z,3.70
2023-04-02T03:18:30.471Z,3.70
2023-04-02T03:19:21.280Z,3.71
2023-04-02T03:20:12.066Z,3.71
2023-04-02T03:21:02.869Z,3.71
2023-04-02T03:21:53.667Z,3.72
2023-04-02T03:22:44.443Z,3.72
2023-04-02T03:23:35.227Z,3.71
2023-04-02T03:24:26.010Z,3.72
2023-04-02T03:25:16.796Z,3.72
2023-04-02T03:26:07.585Z,3.72
2023-04-02T03:26:58.372Z,3.75
2023-04-02T03:27:49.163Z,3.76
2023-04-02T03:28:39.953Z,3.76
2023-04-02T03:29:30.739Z,3.78
2023-04-02T03:30:21.559Z,3.79
2023-04-02T03:31:12.427Z,3.80
2023-04-02T03:32:03.190Z,3.80
2023-04-02T03:32:53.991Z,3.80
2023-04-02T03:33:44.780Z,3.82
2023-04-02T03:34:35.582Z,3.82
2023-04-02T03:35:26.347Z,3.83
2023-04-02T03:36:17.233Z,3.86
2023-04-02T03:37:07.996Z,3.86
2023-04-02T03:37:58.796Z,3.86
2023-04-02T03:38:49.604Z,3.88
2023-04-02T03:39:40.395Z,3.88
2023-04-02T03:40:31.190Z,3.89
2023-04-02T03:41:21.981Z,3.89
2023-04-02T03:42:12.778Z,3.90
2023-04-02T03:43:03.572Z,3.94
2023-04-02T03:43:54.367Z,3.94
2023-04-02T03:44:45.150Z,3.92
2023-04-02T03:45:36.146Z,3.96
2023-04-02T03:46:27.018Z,3.96
2023-04-02T03:47:17.758Z,3.97
2023-04-02T03:48:08.543Z,3.94
2023-04-02T03:48:59.319Z,3.97
2023-04-02T03:49:50.133Z,3.97
2023-04-02T03:50:40.910Z,3.97
2023-04-02T03:51:31.696Z,3.98
2023-04-02T03:52:22.485Z,3.98
2023-04-02T03:53:13.265Z,4.03
2023-04-02T03:54:04.071Z,4.01
2023-04-02T03:54:54.842Z,3.98
2023-04-02T03:55:45.647Z,4.00
2023-04-02T03:56:36.458Z,4.01
2023-04-02T03:57:27.364Z,4.00
2023-04-02T03:58:18.163Z,4.00
2023-04-02T03:59:08.944Z,4.01
2023-04-02T03:59:59.723Z,4.01
2023-04-02T04:00:50.524Z,4.00
2023-04-02T04:01:41.345Z,3.98
2023-04-02T04:02:32.168Z,4.01
2023-04-02T04:03:22.959Z,3.98
2023-04-02T04:04:13.783Z,3.98
2023-04-02T04:05:04.573Z,3.98
2023-04-02T04:05:55.336Z,4.00
2023-04-02T04:06:46.127Z,3.98
2023-04-02T04:07:36.833Z,3.97
2023-04-02T04:08:27.963Z,3.96
2023-04-02T04:09:19.100Z,3.96
2023-04-02T04:10:09.829Z,3.97
2023-04-02T04:11:00.670Z,3.96
2023-04-02T04:11:51.402Z,3.97
2023-04-02T04:12:42.186Z,3.96
2023-04-02T04:13:32.930Z,3.96
2023-04-02T04:14:23.706Z,3.97
2023-04-02T04:15:14.469Z,3.96
2023-04-02T04:16:05.353Z,3.96
2023-04-02T04:16:56.126Z,3.97
2023-04-02T04:17:46.881Z,3.96
2023-04-02T04:18:37.666Z,3.96
2023-04-02T04:19:28.502Z,3.96
2023-04-02T04:20:19.378Z,3.94
2023-04-02T04:21:10.236Z,3.96
2023-04-02T04:22:01.115Z,3.94
2023-04-02T04:22:51.977Z,3.96
2023-04-02T04:23:43.193Z,3.92
2023-04-02T04:24:33.947Z,3.92
2023-04-02T04:25:24.746Z,3.92
2023-04-02T04:26:15.550Z,3.92
2023-04-02T04:27:06.377Z,3.94
2023-04-02T04:27:57.685Z,3.94
2023-04-02T04:28:48.528Z,3.96
2023-04-02T04:29:39.415Z,3.94
2023-04-02T04:30:30.180Z,3.94
2023-04-02T04:31:22.299Z,3.92
2023-04-02T04:32:11.966Z,3.90
2023-04-02T04:33:03.196Z,3.92
2023-04-02T04:33:54.041Z,3.92
2023-04-02T04:34:44.916Z,3.92
2023-04-02T04:35:36.045Z,3.92
2023-04-02T04:36:27.033Z,3.94
2023-04-02T04:37:17.870Z,3.97
2023-04-02T04:38:08.761Z,3.97
2023-04-02T04:38:59.620Z,4.00
2023-04-02T04:39:50.670Z,4.00
2023-04-02T04:40:41.546Z,4.00
2023-04-02T04:41:32.433Z,4.00
2023-04-02T04:42:23.319Z,4.04
2023-04-02T04:43:14.190Z,4.04
2023-04-02T04:44:05.061Z,4.04
2023-04-02T04:44:55.935Z,4.07
2023-04-02T04:45:46.944Z,4.06
2023-04-02T04:46:37.812Z,4.08
2023-04-02T04:47:28.722Z,4.07
2023-04-02T04:48:19.581Z,4.08
2023-04-02T04:49:10.439Z,4.10
2023-04-02T04:50:01.335Z,4.12
2023-04-02T04:50:52.260Z,4.15
2023-04-02T04:51:43.113Z,4.16
2023-04-02T04:52:34.018Z,4.18
2023-04-02T04:53:24.915Z,4.18
2023-04-02T04:54:15.770Z,4.18
2023-04-02T04:55:06.659Z,4.18
2023-04-02T04:56:03.468Z,4.21
2023-04-02T04:56:49.485Z,4.22
2023-04-02T04:57:39.109Z,4.22
2023-04-02T04:58:30.017Z,4.24
2023-04-02T04:59:20.890Z,4.26
2023-04-02T05:00:11.820Z,4.24
2023-04-02T05:01:02.742Z,4.26
2023-04-02T05:01:53.669Z,4.26
2023-04-02T05:02:44.559Z,4.29
2023-04-02T05:03:35.419Z,4.29
2023-04-02T05:04:26.321Z,4.29
2023-04-02T05:05:17.171Z,4.32
2023-04-02T05:06:08.081Z,4.33
2023-04-02T05:06:58.940Z,4.34
2023-04-02T05:07:49.830Z,4.34
2023-04-02T05:08:40.718Z,4.34
2023-04-02T05:09:31.586Z,4.36
2023-04-02T05:10:22.486Z,4.36
2023-04-02T05:11:13.368Z,4.40
2023-04-02T05:12:04.281Z,4.42
2023-04-02T05:12:55.195Z,4.43
2023-04-02T05:13:46.073Z,4.44
2023-04-02T05:14:36.947Z,4.46
2023-04-02T05:15:27.858Z,4.46
2023-04-02T05:16:18.798Z,4.47
2023-04-02T05:17:09.730Z,4.47
2023-04-02T05:18:00.645Z,4.47
2023-04-02T05:18:51.504Z,4.50
2023-04-02T05:19:42.387Z,4.50
2023-04-02T05:20:33.281Z,4.51
2023-04-02T05:21:24.189Z,4.51
2023-04-02T05:22:15.053Z,4.54
2023-04-02T05:23:05.946Z,4.54
2023-04-02T05:23:56.847Z,4.55
2023-04-02T05:24:47.720Z,4.55
2023-04-02T05:25:38.629Z,4.54
2023-04-02T05:26:29.504Z,4.58
2023-04-02T05:27:20.409Z,4.58
2023-04-02T05:28:11.302Z,4.55
2023-04-02T05:29:02.221Z,4.61
2023-04-02T05:29:53.115Z,4.61
2023-04-02T05:30:44.007Z,4.61
2023-04-02T05:31:34.956Z,4.61
2023-04-02T05:32:25.838Z,4.61
2023-04-02T05:33:16.704Z,4.62
2023-04-02T05:34:07.625Z,4.62
2023-04-02T05:34:58.514Z,4.64
2023-04-02T05:35:49.516Z,4.64
2023-04-02T05:36:40.442Z,4.65
2023-04-02T05:37:31.320Z,4.67
2023-04-02T05:38:22.232Z,4.67
2023-04-02T05:39:13.150Z,4.69
2023-04-02T05:40:04.078Z,4.69
2023-04-02T05:40:55.006Z,4.69
2023-04-02T05:41:45.988Z,4.72
2023-04-02T05:42:36.906Z,4.73
2023-04-02T05:43:27.810Z,4.73
2023-04-02T05:44:18.737Z,4.73
2023-04-02T05:45:09.637Z,4.75
2023-04-02T05:46:00.557Z,4.75
2023-04-02T05:46:51.510Z,4.76
2023-04-02T05:47:42.465Z,4.76
2023-04-02T05:48:33.329Z,4.77
2023-04-02T05:49:24.247Z,4.77
2023-04-02T05:50:15.171Z,4.77
2023-04-02T05:51:06.066Z,4.79
2023-04-02T05:51:57.597Z,4.83
2023-04-02T05:52:48.016Z,4.84
2023-04-02T05:53:38.924Z,4.86
2023-04-02T05:54:29.867Z,4.88
2023-04-02T05:55:20.774Z,4.91
2023-04-02T05:56:11.707Z,4.92
2023-04-02T05:57:02.644Z,4.94
2023-04-02T05:58:13.614Z,4.94
2023-04-02T05:58:45.786Z,4.96
2023-04-02T05:59:35.500Z,4.99
2023-04-02T06:00:26.414Z,4.99
2023-04-02T06:01:17.341Z,5.01
2023-04-02T06:02:08.355Z,5.01
2023-04-02T06:02:59.313Z,5.04
2023-04-02T06:03:50.284Z,5.02
2023-04-02T06:04:41.152Z,5.05
2023-04-02T06:05:32.062Z,5.05
2023-04-02T06:06:22.998Z,5.09
2023-04-02T06:07:13.925Z,5.07
2023-04-02T06:08:04.835Z,5.12
2023-04-02T06:08:55.730Z,5.10
2023-04-02T06:09:46.645Z,5.13
2023-04-02T06:10:37.577Z,5.14
2023-04-02T06:11:28.491Z,5.14
2023-04-02T06:12:19.434Z,5.16
2023-04-02T06:13:10.320Z,5.17
2023-04-02T06:14:01.242Z,5.17
2023-04-02T06:14:52.148Z,5.20
2023-04-02T06:15:43.074Z,5.22
2023-04-02T06:16:34.004Z,5.25
2023-04-02T06:17:24.999Z,5.25
2023-04-02T06:18:15.868Z,5.30
2023-04-02T06:19:06.776Z,5.30
2023-04-02T06:19:57.718Z,5.32
2023-04-02T06:20:48.634Z,5.35
2023-04-02T06:21:39.554Z,5.38
2023-04-02T06:22:30.487Z,5.40
2023-04-02T06:23:21.389Z,5.41
2023-04-02T06:24:12.309Z,5.45
2023-04-02T06:25:03.233Z,5.45
2023-04-02T06:25:54.874Z,5.46
2023-04-02T06:26:45.171Z,5.49
2023-04-02T06:27:36.088Z,5.52
2023-04-02T06:28:27.920Z,5.53
2023-04-02T06:29:18.179Z,5.57
2023-04-02T06:30:09.093Z,5.63
2023-04-02T06:31:00.084Z,5.64
2023-04-02T06:31:51.053Z,5.66
2023-04-02T06:32:42.024Z,5.68
2023-04-02T06:33:32.882Z,5.70
2023-04-02T06:34:23.790Z,5.71
2023-04-02T06:35:14.718Z,5.74
2023-04-02T06:36:05.676Z,5.75
2023-04-02T06:36:56.552Z,5.77
2023-04-02T06:37:47.477Z,5.78
2023-04-02T06:38:38.367Z,5.78
2023-04-02T06:39:29.289Z,5.78
2023-04-02T06:40:20.206Z,5.77
2023-04-02T06:41:11.125Z,5.77
2023-04-02T06:42:02.023Z,5.75
2023-04-02T06:42:52.961Z,5.74
2023-04-02T06:43:43.871Z,5.75
2023-04-02T06:44:34.785Z,5.74
2023-04-02T06:45:25.702Z,5.73
2023-04-02T06:46:16.717Z,5.71
2023-04-02T06:47:07.602Z,5.71
2023-04-02T06:47:58.517Z,5.73
2023-04-02T06:48:49.431Z,5.73
2023-04-02T06:49:40.331Z,5.71
2023-04-02T06:50:31.269Z,5.73
2023-04-02T06:51:22.161Z,5.73
2023-04-02T06:52:13.086Z,5.73
2023-04-02T06:53:04.092Z,5.74
2023-04-02T06:53:55.052Z,5.74
2023-04-02T06:54:45.957Z,5.75
2023-04-02T06:55:37.182Z,5.74
2023-04-02T06:56:27.711Z,5.73
2023-04-02T06:57:18.662Z,5.75
2023-04-02T06:58:09.585Z,5.74
2023-04-02T06:59:00.457Z,5.74
2023-04-02T06:59:51.358Z,5.74
2023-04-02T07:00:42.295Z,5.74
2023-04-02T07:01:33.204Z,5.71
2023-04-02T07:02:24.119Z,5.70
2023-04-02T07:03:15.020Z,5.68
2023-04-02T07:04:05.976Z,5.68
2023-04-02T07:04:56.905Z,5.70
2023-04-02T07:05:47.830Z,5.70
2023-04-02T07:06:38.718Z,5.71
2023-04-02T07:07:29.635Z,5.73
2023-04-02T07:08:20.565Z,5.73
2023-04-02T07:09:11.467Z,5.71
2023-04-02T07:10:02.391Z,5.75
2023-04-02T07:10:53.308Z,5.75
2023-04-02T07:11:44.225Z,5.78
2023-04-02T07:12:35.149Z,5.78
2023-04-02T07:13:26.043Z,5.82
2023-04-02T07:14:16.964Z,5.83
2023-04-02T07:15:07.874Z,5.83
2023-04-02T07:15:59.074Z,5.83
2023-04-02T07:16:50.138Z,5.86
2023-04-02T07:17:41.116Z,5.88
2023-04-02T07:18:31.991Z,5.88
2023-04-02T07:19:22.915Z,5.89
2023-04-02T07:20:13.819Z,5.92
2023-04-02T07:21:04.736Z,5.93
2023-04-02T07:21:55.666Z,5.95
2023-04-02T07:22:46.577Z,6.00
2023-04-02T07:23:37.496Z,6.03
2023-04-02T07:24:28.406Z,6.01
2023-04-02T07:25:19.312Z,5.98
2023-04-02T07:26:10.238Z,5.98
2023-04-02T07:27:01.159Z,5.98
2023-04-02T07:27:52.070Z,6.00
2023-04-02T07:28:42.989Z,5.95
2023-04-02T07:29:33.906Z,5.95
2023-04-02T07:30:24.818Z,5.93
2023-04-02T07:31:15.799Z,5.92
2023-04-02T07:32:06.664Z,5.92
2023-04-02T07:32:57.630Z,5.91
2023-04-02T07:33:48.516Z,5.92
2023-04-02T07:34:39.418Z,5.93
2023-04-02T07:35:30.336Z,5.93
2023-04-02T07:36:21.274Z,5.95
2023-04-02T07:37:12.172Z,5.96
2023-04-02T07:38:03.086Z,6.00
2023-04-02T07:38:54.083Z,5.98
2023-04-02T07:39:44.917Z,6.01
2023-04-02T07:40:35.825Z,6.01
2023-04-02T07:41:26.752Z,6.04
2023-04-02T07:42:17.674Z,6.03
2023-04-02T07:43:08.585Z,6.03
2023-04-02T07:43:59.494Z,6.06
2023-04-02T07:44:50.422Z,6.04
2023-04-02T07:45:41.340Z,6.06
2023-04-02T07:46:32.270Z,6.06
2023-04-02T07:47:23.162Z,6.06
2023-04-02T07:48:14.083Z,6.06
2023-04-02T07:49:04.998Z,6.06
2023-04-02T07:49:55.910Z,6.07
2023-04-02T07:50:46.830Z,6.06
2023-04-02T07:51:37.748Z,6.09
2023-04-02T07:52:28.712Z,6.11
2023-04-02T07:53:19.571Z,6.10
2023-04-02T07:54:10.502Z,6.13
2023-04-02T07:55:01.404Z,6.14
2023-04-02T07:55:52.304Z,6.18
2023-04-02T07:56:43.238Z,6.19
2023-04-02T07:57:34.150Z,6.19
2023-04-02T07:58:25.048Z,6.19
2023-04-02T07:59:15.955Z,6.19
2023-04-02T08:00:06.862Z,6.16
2023-04-02T08:00:57.823Z,6.16
2023-04-02T08:01:48.750Z,6.18
2023-04-02T08:02:39.676Z,6.19
2023-04-02T08:03:30.684Z,6.22
2023-04-02T08:04:21.647Z,6.22
2023-04-02T08:05:12.530Z,6.21
2023-04-02T08:06:03.436Z,6.22
2023-04-02T08:06:54.374Z,6.25
2023-04-02T08:07:45.277Z,6.22
2023-04-02T08:08:36.194Z,6.21
2023-04-02T08:09:27.143Z,6.21
2023-04-02T08:10:18.051Z,6.19
2023-04-02T08:11:08.975Z,6.22
2023-04-02T08:11:59.897Z,6.25
2023-04-02T08:12:50.785Z,6.22
2023-04-02T08:13:41.721Z,6.25
2023-04-02T08:14:32.615Z,6.26
2023-04-02T08:15:23.542Z,6.30
2023-04-02T08:16:14.498Z,6.32
2023-04-02T08:17:05.374Z,6.33
2023-04-02T08:17:56.405Z,6.32
2023-04-02T08:18:47.318Z,6.38
2023-04-02T08:19:51.745Z,6.41
2023-04-02T08:20:30.150Z,6.41
2023-04-02T08:21:19.867Z,6.44
2023-04-02T08:22:10.793Z,6.47
2023-04-02T08:23:01.721Z,6.48
2023-04-02T08:23:52.648Z,6.48
2023-04-02T08:24:43.679Z,6.47
2023-04-02T08:25:34.724Z,6.50
2023-04-02T08:26:25.669Z,6.54
2023-04-02T08:27:16.585Z,6.56
2023-04-02T08:28:07.527Z,6.59
2023-04-02T08:28:58.441Z,6.62
2023-04-02T08:29:49.365Z,6.63
2023-04-02T08:30:40.351Z,6.68
2023-04-02T08:31:31.258Z,6.69
2023-04-02T08:32:22.200Z,6.72
2023-04-02T08:33:13.162Z,6.73
2023-04-02T08:34:04.084Z,6.76
2023-04-02T08:34:55.017Z,6.79
2023-04-02T08:35:45.966Z,6.79
2023-04-02T08:36:36.879Z,6.80
2023-04-02T08:37:27.822Z,6.86
2023-04-02T08:38:18.848Z,6.89
2023-04-02T08:39:09.753Z,6.94
2023-04-02T08:40:00.722Z,6.94
2023-04-02T08:40:51.608Z,6.97
2023-04-02T08:41:42.533Z,7.02
2023-04-02T08:42:33.467Z,7.02
2023-04-02T08:43:24.392Z,7.05
2023-04-02T08:44:15.324Z,7.09
2023-04-02T08:45:17.166Z,7.15
2023-04-02T08:45:58.212Z,7.16
2023-04-02T08:46:47.900Z,7.19
2023-04-02T08:47:38.885Z,7.20
2023-04-02T08:48:29.819Z,7.23
2023-04-02T08:49:20.745Z,7.26
2023-04-02T08:50:11.681Z,7.29
2023-04-02T08:51:02.608Z,7.31
2023-04-02T08:51:53.533Z,7.32
2023-04-02T08:52:44.455Z,7.35
2023-04-02T08:53:35.384Z,7.40
2023-04-02T08:54:27.281Z,7.41
2023-04-02T08:55:17.535Z,7.45
2023-04-02T08:56:08.434Z,7.50
2023-04-02T08:56:59.352Z,7.52
2023-04-02T08:57:50.279Z,7.58
2023-04-02T08:58:41.217Z,7.56
2023-04-02T08:59:32.170Z,7.59
2023-04-02T09:00:23.072Z,7.66
2023-04-02T09:01:14.030Z,7.75
2023-04-02T09:02:05.001Z,7.85
2023-04-02T09:02:56.008Z,7.92
2023-04-02T09:03:46.923Z,8.03
2023-04-02T09:04:37.879Z,8.14
2023-04-02T09:05:28.804Z,8.21
2023-04-02T09:06:19.739Z,8.28
2023-04-02T09:07:10.680Z,8.35
2023-04-02T09:08:01.625Z,8.42
2023-04-02T09:08:52.563Z,8.48
2023-04-02T09:09:43.502Z,8.55
2023-04-02T09:10:34.478Z,8.60
2023-04-02T09:11:25.388Z,8.69
2023-04-02T09:12:16.338Z,8.75
2023-04-02T09:13:07.265Z,8.78
2023-04-02T09:13:58.222Z,8.83
2023-04-02T09:14:49.169Z,8.88
2023-04-02T09:15:40.140Z,8.91
2023-04-02T09:16:31.122Z,8.93
2023-04-02T09:17:22.086Z,8.96
2023-04-02T09:18:13.072Z,8.94
2023-04-02T09:19:03.972Z,8.94
2023-04-02T09:19:54.919Z,8.94
2023-04-02T09:20:45.937Z,8.94
2023-04-02T09:21:36.892Z,8.93
2023-04-02T09:22:27.855Z,8.93
2023-04-02T09:23:18.773Z,8.93
2023-04-02T09:24:09.712Z,8.96
2023-04-02T09:25:00.669Z,8.96
2023-04-02T09:26:03.003Z,9.01
2023-04-02T09:26:43.528Z,9.02
2023-04-02T09:27:33.248Z,9.06
2023-04-02T09:28:24.193Z,9.13
2023-04-02T09:29:15.144Z,9.25
2023-04-02T09:30:06.086Z,9.38
2023-04-02T09:30:57.024Z,9.46
2023-04-02T09:31:47.991Z,9.52
2023-04-02T09:32:38.958Z,9.57
2023-04-02T09:33:29.847Z,9.60
2023-04-02T09:34:20.809Z,9.60
2023-04-02T09:35:22.420Z,9.61
2023-04-02T09:36:03.730Z,9.64
2023-04-02T09:36:53.414Z,9.66
2023-04-02T09:37:44.359Z,9.68
2023-04-02T09:38:35.287Z,9.73
2023-04-02T09:39:26.240Z,9.79
2023-04-02T09:40:17.162Z,9.85
2023-04-02T09:41:08.129Z,9.86
2023-04-02T09:42:05.374Z,9.88
2023-04-02T09:42:50.994Z,9.93
2023-04-02T09:43:40.721Z,9.93
2023-04-02T09:44:31.653Z,9.96
2023-04-02T09:45:22.584Z,9.96
2023-04-02T09:46:13.577Z,10.00
2023-04-02T09:47:04.526Z,10.04
2023-04-02T09:47:55.461Z,10.07
2023-04-02T09:48:46.390Z,10.09
2023-04-02T09:49:37.339Z,10.15
2023-04-02T09:50:28.283Z,10.17
2023-04-02T09:51:19.219Z,10.18
2023-04-02T09:52:10.162Z,10.19
2023-04-02T09:53:01.095Z,10.18
2023-04-02T09:53:52.010Z,10.18
2023-04-02T09:54:42.932Z,10.17
2023-04-02T09:55:34.108Z,10.18
2023-04-02T09:56:24.575Z,10.18
2023-04-02T09:57:15.541Z,10.19
2023-04-02T09:58:06.470Z,10.17
2023-04-02T09:58:57.396Z,10.17
2023-04-02T09:59:48.341Z,10.21
2023-04-02T10:00:39.293Z,10.21
2023-04-02T10:01:30.283Z,10.24
2023-04-02T10:02:21.205Z,10.30
2023-04-02T10:03:12.165Z,10.34
2023-04-02T10:04:03.132Z,10.39
2023-04-02T10:04:54.086Z,10.43
2023-04-02T10:05:45.241Z,10.46
2023-04-02T10:06:36.228Z,10.53
2023-04-02T10:07:27.221Z,10.58
2023-04-02T10:08:18.184Z,10.62
2023-04-02T10:09:09.119Z,10.70
2023-04-02T10:10:00.103Z,10.71
2023-04-02T10:10:51.007Z,10.78
2023-04-02T10:11:46.548Z,10.84
2023-04-02T10:12:33.889Z,10.81
2023-04-02T10:13:23.679Z,10.83
2023-04-02T10:14:14.554Z,10.80
2023-04-02T10:15:05.492Z,10.76
2023-04-02T10:15:56.417Z,10.74
2023-04-02T10:16:47.391Z,10.77
2023-04-02T10:17:38.358Z,10.81
2023-04-02T10:18:29.245Z,10.92
2023-04-02T10:19:20.204Z,10.99
2023-04-02T10:20:11.148Z,11.01
2023-04-02T10:21:02.113Z,11.03
2023-04-02T10:21:53.045Z,11.06
2023-04-02T10:22:43.996Z,11.07
2023-04-02T10:23:34.941Z,11.10
2023-04-02T10:24:25.889Z,11.14
2023-04-02T10:25:16.829Z,11.17
2023-04-02T10:26:07.771Z,11.17
2023-04-02T10:26:58.724Z,11.14
2023-04-02T10:27:49.660Z,11.17
2023-04-02T10:28:40.583Z,11.17
2023-04-02T10:29:31.529Z,11.19
2023-04-02T10:30:22.473Z,11.24
2023-04-02T10:31:13.490Z,11.24
2023-04-02T10:32:04.384Z,11.24
2023-04-02T10:32:55.374Z,11.27
2023-04-02T10:33:46.322Z,11.35
2023-04-02T10:34:37.264Z,11.39
2023-04-02T10:35:28.248Z,11.46
2023-04-02T10:36:19.147Z,11.52
2023-04-02T10:37:10.087Z,11.53
2023-04-02T10:38:01.036Z,11.53
2023-04-02T10:38:51.974Z,11.52
2023-04-02T10:39:42.928Z,11.54
2023-04-02T10:40:33.859Z,11.50
2023-04-02T10:41:24.807Z,11.47
2023-04-02T10:42:15.768Z,11.49
2023-04-02T10:43:06.709Z,11.49
2023-04-02T10:43:59.363Z,11.49
2023-04-02T10:44:49.601Z,11.50
2023-04-02T10:45:39.335Z,11.53
2023-04-02T10:46:30.289Z,11.61
2023-04-02T10:47:21.216Z,11.68
2023-04-02T10:48:12.164Z,11.77
2023-04-02T10:49:03.114Z,11.85
2023-04-02T10:49:54.038Z,11.90
2023-04-02T10:50:44.990Z,11.94
2023-04-02T10:51:35.932Z,12.01
2023-04-02T10:52:26.882Z,12.09
2023-04-02T10:53:17.824Z,12.20
2023-04-02T10:54:08.826Z,12.27
2023-04-02T10:54:59.751Z,12.37
2023-04-02T10:55:50.689Z,12.44
2023-04-02T10:56:50.570Z,12.51
2023-04-02T10:57:33.640Z,12.57
2023-04-02T10:58:23.320Z,12.66
2023-04-02T10:59:14.269Z,12.70
2023-04-02T11:00:05.198Z,12.77
2023-04-02T11:00:56.151Z,12.81
2023-04-02T11:01:47.145Z,12.85
2023-04-02T11:02:38.064Z,12.93
2023-04-02T11:03:29.014Z,12.95
2023-04-02T11:04:19.977Z,12.99
2023-04-02T11:05:10.902Z,13.00
2023-04-02T11:06:01.908Z,12.93
2023-04-02T11:06:58.117Z,12.95
2023-04-02T11:07:44.763Z,12.93
2023-04-02T11:08:34.475Z,12.95
2023-04-02T11:09:25.400Z,12.89
2023-04-02T11:10:16.344Z,12.87
2023-04-02T11:11:07.266Z,12.82
2023-04-02T11:11:58.183Z,12.67
2023-04-02T11:12:49.139Z,12.62
2023-04-02T11:13:40.069Z,12.63